This is the latest recevied weather packets stored in our database for station/object BV1EV-2. If no packets are shown the sender has not sent any weather packets the latest 10 day(s).
| Time | Temp. | Humidity | Pressure | Rain* | Wind** | Luminosity | Snow |
|---|---|---|---|---|---|---|---|
| 1777921068 | 26.67° C | 37% | 1012.5 hPa | - | - | - | - |
| 1777919868 | 27.22° C | 35% | 1012.7 hPa | - | - | - | - |
| 1777918668 | 27.22° C | 37% | 1012.9 hPa | - | - | - | - |
| 1777917467 | 27.78° C | 42% | 1013.2 hPa | - | - | - | - |
| 1777916268 | 27.78° C | 44% | 1013.6 hPa | - | - | - | - |
| 1777915067 | 25.56° C | 47% | 1014 hPa | - | - | - | - |
| 1777913867 | 26.67° C | 39% | 1014.3 hPa | - | - | - | - |
| 1777912667 | 27.22° C | 36% | 1014.8 hPa | - | - | - | - |
| 1777911467 | 27.22° C | 39% | 1014.9 hPa | - | - | - | - |
| 1777909067 | 26.67° C | 44% | 1015.7 hPa | - | - | - | - |
| 1777907868 | 28.33° C | 40% | 1016 hPa | - | - | - | - |
| 1777906668 | 28.89° C | 39% | 1016.4 hPa | - | - | - | - |
| 1777905467 | 28.89° C | 40% | 1016.9 hPa | - | - | - | - |
| 1777904267 | 29.44° C | 42% | 1016.9 hPa | - | - | - | - |
| 1777901868 | 29.44° C | 43% | 1017.4 hPa | - | - | - | - |
| 1777900668 | 29.44° C | 43% | 1017.5 hPa | - | - | - | - |
| 1777899468 | 29.44° C | 42% | 1017.4 hPa | - | - | - | - |
| 1777898268 | 29.44° C | 43% | 1017.6 hPa | - | - | - | - |
| 1777897068 | 29.44° C | 44% | 1017.8 hPa | - | - | - | - |
| 1777895867 | 29.44° C | 43% | 1017.9 hPa | - | - | - | - |
| 1777894667 | 29.44° C | 43% | 1017.9 hPa | - | - | - | - |
| 1777893467 | 29.44° C | 42% | 1017.8 hPa | - | - | - | - |
| 1777892267 | 29.44° C | 41% | 1017.5 hPa | - | - | - | - |
| 1777891067 | 29.44° C | 40% | 1017.3 hPa | - | - | - | - |
| 1777889867 | 29.44° C | 38% | 1016.8 hPa | - | - | - | - |
* Rain since midnight (hover to see other rain measurements)
** Current wind speed in m/s (hover to see current wind gust speed)